ADDS METAR Data INFO
IDs: Format: Raw Decoded Include TAF

Data at: 0052 UTC 22 Oct 2017

KGAD 212356Z AUTO 13004KT 10SM CLR 21/16 A3021 RMK AO2 SLP232 T02110161 10267 20211 53005
KGAD 212256Z AUTO 13004KT 10SM CLR 23/16 A3020 RMK AO2 SLP229 T02280161
KGAD 212156Z AUTO 10003KT 10SM CLR 24/17 A3020 RMK AO2 SLP228 T02390172
KGAD 212056Z AUTO 14006KT 10SM CLR 25/15 A3020 RMK AO2 SLP227 T02500150 55010
KGAD 211956Z AUTO 13007KT 10SM CLR 26/14 A3019 RMK AO2 SLP226 T02560144
KGAD 211856Z AUTO 17008KT 10SM CLR 26/14 A3021 RMK AO2 SLP231 T02610144
KGAD 211756Z AUTO 08004KT 10SM SCT041 25/17 A3023 RMK AO2 SLP238 T02500172 10250 20078 58020
KGAD 211656Z AUTO 05005KT 10SM CLR 23/17 A3026 RMK AO2 SLP249 T02330167
KGAD 211556Z AUTO 09003KT 10SM CLR 21/14 A3028 RMK AO2 SLP256 T02060144
KGAD 211456Z AUTO 06005KT 10SM CLR 17/14 A3029 RMK AO2 SLP259 T01720139 50011
KGAD 211356Z AUTO 06003KT 10SM CLR 14/12 A3029 RMK AO2 SLP261 T01440122
KGAD 211256Z AUTO 00000KT 10SM CLR 09/09 A3028 RMK AO2 SLP259 T00890089
KGAD 211156Z AUTO 25003KT 10SM CLR 08/08 A3025 RMK AO2 SLP250 T00780078 10089 20072 53015
KGAD 211056Z AUTO 00000KT 10SM CLR 08/08 A3023 RMK AO2 SLP241 T00780078
KGAD 210956Z AUTO 00000KT 10SM CLR 08/08 A3022 RMK AO2 SLP235 T00830083
KGAD 210856Z AUTO 00000KT 10SM CLR 08/08 A3021 RMK AO2 SLP233 T00780078 50000
KGAD 210756Z AUTO 00000KT 10SM CLR 08/08 A3020 RMK AO2 SLP230 T00830083
KGAD 210713Z AUTO 00000KT 10SM CLR 08/08 A3022 RMK AO2
KGAD 210705Z AUTO 00000KT 2 1/2SM BR CLR 08/08 A3022 RMK AO2
KGAD 210656Z AUTO 24003KT 10SM CLR 09/09 A3022 RMK AO2 SLP235 T00890089
KGAD 210556Z AUTO 00000KT 10SM CLR 08/08 A3021 RMK AO2 SLP233 T00830083 10144 20083 402500033 51000
KGAD 210456Z AUTO 00000KT 10SM CLR 10/10 A3021 RMK AO2 SLP233 T01000100
KGAD 210356Z AUTO 00000KT 10SM CLR 10/10 A3021 RMK AO2 SLP234 T01000100
KGAD 210256Z AUTO 00000KT 10SM CLR 10/10 A3021 RMK AO2 SLP234 T01000100 53006
KGAD 210156Z AUTO 00000KT 10SM CLR 12/11 A3020 RMK AO2 SLP230 T01170111
KGAD 210056Z AUTO 00000KT 10SM CLR 13/12 A3019 RMK AO2 SLP231 T01280122
KGAD 202356Z AUTO 00000KT 10SM CLR 14/12 A3019 RMK AO2 SLP229 T01440122 10250 20144 53004
KGAD 202256Z AUTO 00000KT 10SM CLR 19/12 A3018 RMK AO2 SLP224 T01890122
KGAD 202156Z AUTO 05003KT 10SM CLR 24/11 A3017 RMK AO2 SLP220 T02390106
KGAD 202056Z AUTO 08005KT 10SM CLR 24/09 A3018 RMK AO2 SLP221 T02440094 56024
KGAD 201956Z AUTO VRB04KT 10SM CLR 24/09 A3019 RMK AO2 SLP227 T02440089
KGAD 201856Z AUTO 00000KT 10SM CLR 24/11 A3021 RMK AO2 SLP233 T02390106
KGAD 201756Z AUTO 06004KT 10SM CLR 23/11 A3025 RMK AO2 SLP246 T02280111 10228 20033 58024
KGAD 201656Z AUTO 09005KT 10SM CLR 21/11 A3029 RMK AO2 SLP259 T02060111 TSNO
KGAD 201556Z AUTO 08006KT 10SM CLR 18/12 A3031 RMK AO2 SLP266 T01830122
KGAD 201456Z AUTO 00000KT 10SM CLR 14/12 A3032 RMK AO2 SLP272 T01440117 51005
KGAD 201356Z AUTO 06003KT 10SM CLR 11/10 A3032 RMK AO2 SLP273 T01110100
KGAD 201256Z AUTO 00000KT 10SM CLR 07/07 A3032 RMK AO2 SLP271 T00670067